sensor_id;sensor_type;location;lat;lon;timestamp;pressure;altitude;pressure_sealevel;temperature;humidity
80542;BME280;69870;51.460;8.842;2023-05-10T00:01:40;97608.09;;;15.21;79.21
80542;BME280;69870;51.460;8.842;2023-05-10T00:04:08;97604.25;;;15.15;79.05
80542;BME280;69870;51.460;8.842;2023-05-10T00:06:34;97604.25;;;15.11;79.29
80542;BME280;69870;51.460;8.842;2023-05-10T00:09:01;97602.72;;;15.07;80.15
80542;BME280;69870;51.460;8.842;2023-05-10T00:11:28;97601.16;;;15.06;79.43
80542;BME280;69870;51.460;8.842;2023-05-10T00:13:54;97602.34;;;15.05;79.44
80542;BME280;69870;51.460;8.842;2023-05-10T00:16:21;97595.31;;;15.04;80.16
80542;BME280;69870;51.460;8.842;2023-05-10T00:18:47;97604.31;;;15.04;80.30
80542;BME280;69870;51.460;8.842;2023-05-10T00:21:15;97596.84;;;15.05;79.57
80542;BME280;69870;51.460;8.842;2023-05-10T00:23:42;97598.84;;;15.04;79.72
80542;BME280;69870;51.460;8.842;2023-05-10T00:26:09;97592.56;;;15.04;79.52
80542;BME280;69870;51.460;8.842;2023-05-10T00:28:36;97589.03;;;15.03;80.29
80542;BME280;69870;51.460;8.842;2023-05-10T00:31:03;97594.16;;;15.01;79.64
80542;BME280;69870;51.460;8.842;2023-05-10T00:33:30;97587.09;;;15.00;80.01
80542;BME280;69870;51.460;8.842;2023-05-10T00:35:56;97589.09;;;15.00;80.57
80542;BME280;69870;51.460;8.842;2023-05-10T00:38:25;97589.47;;;14.98;79.78
80542;BME280;69870;51.460;8.842;2023-05-10T00:40:51;97585.94;;;14.98;79.71
80542;BME280;69870;51.460;8.842;2023-05-10T00:43:25;97580.09;;;14.96;80.41
80542;BME280;69870;51.460;8.842;2023-05-10T00:45:52;97578.94;;;14.93;80.03
80542;BME280;69870;51.460;8.842;2023-05-10T00:48:19;97582.84;;;14.92;80.47
80542;BME280;69870;51.460;8.842;2023-05-10T00:50:46;97588.75;;;14.91;80.41
80542;BME280;69870;51.460;8.842;2023-05-10T00:53:14;97582.47;;;14.90;80.62
80542;BME280;69870;51.460;8.842;2023-05-10T00:55:42;97583.25;;;14.91;80.37
80542;BME280;69870;51.460;8.842;2023-05-10T00:58:09;97586.00;;;14.91;80.22
80542;BME280;69870;51.460;8.842;2023-05-10T01:00:36;97581.69;;;14.90;80.31
80542;BME280;69870;51.460;8.842;2023-05-10T01:03:04;97585.63;;;14.89;79.87
80542;BME280;69870;51.460;8.842;2023-05-10T01:05:30;97582.09;;;14.88;80.66
80542;BME280;69870;51.460;8.842;2023-05-10T01:07:57;97577.00;;;14.87;80.72
80542;BME280;69870;51.460;8.842;2023-05-10T01:10:23;97577.81;;;14.84;80.69
80542;BME280;69870;51.460;8.842;2023-05-10T01:12:51;97570.78;;;14.83;80.14
80542;BME280;69870;51.460;8.842;2023-05-10T01:15:20;97578.63;;;14.81;80.48
80542;BME280;69870;51.460;8.842;2023-05-10T01:17:48;97576.66;;;14.81;80.85
80542;BME280;69870;51.460;8.842;2023-05-10T01:20:15;97583.31;;;14.84;80.55
80542;BME280;69870;51.460;8.842;2023-05-10T01:23:09;97577.03;;;14.83;80.35
80542;BME280;69870;51.460;8.842;2023-05-10T01:28:52;97582.94;;;14.82;81.04
80542;BME280;69870;51.460;8.842;2023-05-10T01:34:25;97579.41;;;14.81;80.38
80542;BME280;69870;51.460;8.842;2023-05-10T01:36:59;97582.53;;;14.80;80.14
80542;BME280;69870;51.460;8.842;2023-05-10T01:39:32;97580.19;;;14.78;80.77
80542;BME280;69870;51.460;8.842;2023-05-10T01:42:06;97584.91;;;14.78;80.51
80542;BME280;69870;51.460;8.842;2023-05-10T01:44:38;97586.06;;;14.77;81.28
80542;BME280;69870;51.460;8.842;2023-05-10T01:47:08;97588.81;;;14.77;80.50
80542;BME280;69870;51.460;8.842;2023-05-10T01:49:41;97581.75;;;14.76;81.13
80542;BME280;69870;51.460;8.842;2023-05-10T01:52:12;97588.03;;;14.76;80.48
80542;BME280;69870;51.460;8.842;2023-05-10T01:54:43;97590.41;;;14.71;81.34
80542;BME280;69870;51.460;8.842;2023-05-10T01:57:12;97600.97;;;14.68;81.02
80542;BME280;69870;51.460;8.842;2023-05-10T01:59:43;97600.97;;;14.65;80.44
80542;BME280;69870;51.460;8.842;2023-05-10T02:02:12;97593.59;;;14.62;81.57
80542;BME280;69870;51.460;8.842;2023-05-10T02:04:43;97592.41;;;14.59;81.61
80542;BME280;69870;51.460;8.842;2023-05-10T02:07:11;97603.78;;;14.54;81.63
80542;BME280;69870;51.460;8.842;2023-05-10T02:09:38;97608.50;;;14.50;81.15
80542;BME280;69870;51.460;8.842;2023-05-10T02:12:07;97609.28;;;14.44;81.14
80542;BME280;69870;51.460;8.842;2023-05-10T02:14:36;97615.16;;;14.39;80.96
80542;BME280;69870;51.460;8.842;2023-05-10T02:17:04;97614.78;;;14.37;81.56
80542;BME280;69870;51.460;8.842;2023-05-10T02:19:32;97614.03;;;14.33;81.28
80542;BME280;69870;51.460;8.842;2023-05-10T02:22:03;97623.38;;;14.28;81.35
80542;BME280;69870;51.460;8.842;2023-05-10T02:24:32;97619.47;;;14.26;81.27
80542;BME280;69870;51.460;8.842;2023-05-10T02:27:00;97622.19;;;14.22;81.01
80542;BME280;69870;51.460;8.842;2023-05-10T02:29:28;97623.81;;;14.20;80.93
80542;BME280;69870;51.460;8.842;2023-05-10T02:31:57;97628.47;;;14.16;80.82
80542;BME280;69870;51.460;8.842;2023-05-10T02:34:25;97623.81;;;14.13;81.42
80542;BME280;69870;51.460;8.842;2023-05-10T02:36:53;97628.09;;;14.10;81.35
80542;BME280;69870;51.460;8.842;2023-05-10T02:39:22;97633.56;;;14.10;80.57
80542;BME280;69870;51.460;8.842;2023-05-10T02:41:50;97628.88;;;14.07;80.91
80542;BME280;69870;51.460;8.842;2023-05-10T02:44:19;97635.53;;;14.03;80.36
80542;BME280;69870;51.460;8.842;2023-05-10T02:46:46;97631.63;;;14.00;81.18
80542;BME280;69870;51.460;8.842;2023-05-10T02:49:13;97631.25;;;13.98;81.49
80542;BME280;69870;51.460;8.842;2023-05-10T02:51:42;97625.78;;;13.94;80.37
80542;BME280;69870;51.460;8.842;2023-05-10T02:54:12;97619.16;;;13.92;80.43
80542;BME280;69870;51.460;8.842;2023-05-10T02:56:51;97625.81;;;13.91;80.56
80542;BME280;69870;51.460;8.842;2023-05-10T02:59:20;97618.38;;;13.88;80.94
80542;BME280;69870;51.460;8.842;2023-05-10T03:01:46;97622.28;;;13.87;79.92
80542;BME280;69870;51.460;8.842;2023-05-10T03:04:13;97618.00;;;13.86;80.30
80542;BME280;69870;51.460;8.842;2023-05-10T03:06:40;97632.81;;;13.85;79.75
80542;BME280;69870;51.460;8.842;2023-05-10T03:09:07;97627.38;;;13.81;79.78
80542;BME280;69870;51.460;8.842;2023-05-10T03:14:40;97629.69;;;13.76;80.22
80542;BME280;69870;51.460;8.842;2023-05-10T03:17:12;97628.16;;;13.75;79.99
80542;BME280;69870;51.460;8.842;2023-05-10T03:19:47;97626.59;;;13.74;80.70
80542;BME280;69870;51.460;8.842;2023-05-10T03:22:23;97633.59;;;13.71;80.00
80542;BME280;69870;51.460;8.842;2023-05-10T03:24:53;97639.88;;;13.72;79.93
80542;BME280;69870;51.460;8.842;2023-05-10T03:27:22;97636.34;;;13.71;80.19
80542;BME280;69870;51.460;8.842;2023-05-10T03:29:50;97639.09;;;13.68;80.24
80542;BME280;69870;51.460;8.842;2023-05-10T03:32:17;97639.09;;;13.68;79.89
80542;BME280;69870;51.460;8.842;2023-05-10T03:34:44;97632.03;;;13.67;80.60
80542;BME280;69870;51.460;8.842;2023-05-10T03:37:10;97641.44;;;13.66;80.32
80542;BME280;69870;51.460;8.842;2023-05-10T03:39:37;97643.38;;;13.65;80.51
80542;BME280;69870;51.460;8.842;2023-05-10T03:42:06;97648.44;;;13.67;80.77
80542;BME280;69870;51.460;8.842;2023-05-10T03:44:33;97649.59;;;13.62;81.08
80542;BME280;69870;51.460;8.842;2023-05-10T03:47:01;97659.38;;;13.56;80.89
80542;BME280;69870;51.460;8.842;2023-05-10T03:49:27;97655.06;;;13.52;80.79
80542;BME280;69870;51.460;8.842;2023-05-10T03:51:54;97651.56;;;13.51;81.02
80542;BME280;69870;51.460;8.842;2023-05-10T03:54:21;97660.16;;;13.53;80.21
80542;BME280;69870;51.460;8.842;2023-05-10T03:56:47;97659.75;;;13.51;80.27
80542;BME280;69870;51.460;8.842;2023-05-10T03:59:15;97661.34;;;13.52;80.77
80542;BME280;69870;51.460;8.842;2023-05-10T04:01:41;97661.34;;;13.49;80.78
80542;BME280;69870;51.460;8.842;2023-05-10T04:04:09;97658.59;;;13.49;81.04
80542;BME280;69870;51.460;8.842;2023-05-10T04:06:37;97660.94;;;13.50;80.29
80542;BME280;69870;51.460;8.842;2023-05-10T04:09:04;97651.56;;;13.51;80.43
80542;BME280;69870;51.460;8.842;2023-05-10T04:11:31;97655.06;;;13.52;80.72
80542;BME280;69870;51.460;8.842;2023-05-10T04:13:57;97655.47;;;13.50;80.92
80542;BME280;69870;51.460;8.842;2023-05-10T04:16:24;97657.03;;;13.48;80.47
80542;BME280;69870;51.460;8.842;2023-05-10T04:18:50;97658.97;;;13.47;80.19
80542;BME280;69870;51.460;8.842;2023-05-10T04:21:18;97664.06;;;13.49;80.69
80542;BME280;69870;51.460;8.842;2023-05-10T04:23:45;97656.63;;;13.49;80.69
80542;BME280;69870;51.460;8.842;2023-05-10T04:26:12;97658.59;;;13.49;80.78
80542;BME280;69870;51.460;8.842;2023-05-10T04:28:39;97659.00;;;13.51;80.60
80542;BME280;69870;51.460;8.842;2023-05-10T04:31:07;97663.28;;;13.52;80.33
80542;BME280;69870;51.460;8.842;2023-05-10T04:33:34;97658.59;;;13.52;80.86
80542;BME280;69870;51.460;8.842;2023-05-10T04:36:00;97666.41;;;13.54;80.79
80542;BME280;69870;51.460;8.842;2023-05-10T04:38:29;97673.41;;;13.51;79.95
80542;BME280;69870;51.460;8.842;2023-05-10T04:41:03;97673.41;;;13.51;80.68
80542;BME280;69870;51.460;8.842;2023-05-10T04:43:30;97668.38;;;13.53;80.95
80542;BME280;69870;51.460;8.842;2023-05-10T04:45:57;97668.75;;;13.48;79.72
80542;BME280;69870;51.460;8.842;2023-05-10T04:48:23;97671.47;;;13.48;80.72
80542;BME280;69870;51.460;8.842;2023-05-10T04:50:50;97676.53;;;13.50;80.98
80542;BME280;69870;51.460;8.842;2023-05-10T04:53:16;97678.88;;;13.51;79.97
80542;BME280;69870;51.460;8.842;2023-05-10T04:55:44;97685.16;;;13.55;80.46
80542;BME280;69870;51.460;8.842;2023-05-10T04:58:11;97687.50;;;13.57;79.90
80542;BME280;69870;51.460;8.842;2023-05-10T05:00:38;97680.84;;;13.58;80.72
80542;BME280;69870;51.460;8.842;2023-05-10T05:03:04;97698.03;;;13.62;80.65
80542;BME280;69870;51.460;8.842;2023-05-10T05:05:31;97694.50;;;13.65;79.58
80542;BME280;69870;51.460;8.842;2023-05-10T05:07:58;97700.75;;;13.65;80.62
80542;BME280;69870;51.460;8.842;2023-05-10T05:10:24;97717.94;;;13.66;80.97
80542;BME280;69870;51.460;8.842;2023-05-10T05:12:52;97716.38;;;13.65;80.75
80542;BME280;69870;51.460;8.842;2023-05-10T05:15:19;97710.13;;;13.57;80.20
80542;BME280;69870;51.460;8.842;2023-05-10T05:17:45;97714.41;;;13.51;80.44
80542;BME280;69870;51.460;8.842;2023-05-10T05:20:12;97714.00;;;13.39;80.22
80542;BME280;69870;51.460;8.842;2023-05-10T05:22:39;97735.44;;;13.33;80.92
80542;BME280;69870;51.460;8.842;2023-05-10T05:25:06;97736.22;;;13.27;80.88
80542;BME280;69870;51.460;8.842;2023-05-10T05:27:33;97739.31;;;13.25;80.60
80542;BME280;69870;51.460;8.842;2023-05-10T05:30:01;97745.16;;;13.27;79.85
80542;BME280;69870;51.460;8.842;2023-05-10T05:32:27;97754.91;;;13.24;79.73
80542;BME280;69870;51.460;8.842;2023-05-10T05:34:54;97756.44;;;13.18;80.72
80542;BME280;69870;51.460;8.842;2023-05-10T05:37:20;97763.88;;;13.25;80.51
80542;BME280;69870;51.460;8.842;2023-05-10T05:39:48;97756.13;;;13.31;80.64
80542;BME280;69870;51.460;8.842;2023-05-10T05:42:14;97756.50;;;13.33;81.17
80542;BME280;69870;51.460;8.842;2023-05-10T05:44:43;97763.09;;;13.24;80.12
80542;BME280;69870;51.460;8.842;2023-05-10T05:47:11;97768.19;;;13.26;79.67
80542;BME280;69870;51.460;8.842;2023-05-10T05:49:37;97769.38;;;13.29;80.40
80542;BME280;69870;51.460;8.842;2023-05-10T05:52:04;97777.19;;;13.30;80.49
80542;BME280;69870;51.460;8.842;2023-05-10T05:54:31;97781.84;;;13.26;79.62
80542;BME280;69870;51.460;8.842;2023-05-10T05:56:58;97781.84;;;13.30;79.58
80542;BME280;69870;51.460;8.842;2023-05-10T05:59:25;97783.44;;;13.34;80.29
80542;BME280;69870;51.460;8.842;2023-05-10T06:01:52;97789.72;;;13.42;80.03
80542;BME280;69870;51.460;8.842;2023-05-10T06:04:20;97794.00;;;13.43;79.18
80542;BME280;69870;51.460;8.842;2023-05-10T06:06:46;97804.56;;;13.48;79.08
80542;BME280;69870;51.460;8.842;2023-05-10T06:09:13;97808.47;;;13.50;78.86
80542;BME280;69870;51.460;8.842;2023-05-10T06:11:39;97808.84;;;13.52;78.66
80542;BME280;69870;51.460;8.842;2023-05-10T06:14:06;97811.19;;;13.54;78.97
80542;BME280;69870;51.460;8.842;2023-05-10T06:16:33;97810.00;;;13.51;78.97
80542;BME280;69870;51.460;8.842;2023-05-10T06:19:00;97812.78;;;13.55;79.46
80542;BME280;69870;51.460;8.842;2023-05-10T06:21:27;97814.72;;;13.58;79.16
80542;BME280;69870;51.460;8.842;2023-05-10T06:23:54;97817.44;;;13.58;79.30
80542;BME280;69870;51.460;8.842;2023-05-10T06:26:21;97831.13;;;13.65;78.20
80542;BME280;69870;51.460;8.842;2023-05-10T06:28:47;97827.66;;;13.75;77.81
80542;BME280;69870;51.460;8.842;2023-05-10T06:31:14;97826.50;;;13.83;78.31
80542;BME280;69870;51.460;8.842;2023-05-10T06:33:41;97826.13;;;13.91;77.91
80542;BME280;69870;51.460;8.842;2023-05-10T06:36:08;97827.34;;;14.01;77.39
80542;BME280;69870;51.460;8.842;2023-05-10T06:38:36;97820.72;;;14.23;76.65
80542;BME280;69870;51.460;8.842;2023-05-10T06:41:02;97815.28;;;14.41;76.66
80542;BME280;69870;51.460;8.842;2023-05-10T06:43:29;97827.78;;;14.66;76.49
80542;BME280;69870;51.460;8.842;2023-05-10T06:45:55;97833.22;;;14.88;75.13
80542;BME280;69870;51.460;8.842;2023-05-10T06:48:22;97835.94;;;14.95;75.26
80542;BME280;69870;51.460;8.842;2023-05-10T06:50:49;97835.06;;;15.33;74.51
80542;BME280;69870;51.460;8.842;2023-05-10T06:53:15;97833.38;;;15.67;73.97
80542;BME280;69870;51.460;8.842;2023-05-10T06:55:43;97838.75;;;15.88;73.29
80542;BME280;69870;51.460;8.842;2023-05-10T06:58:10;97835.91;;;16.02;72.47
80542;BME280;69870;51.460;8.842;2023-05-10T07:00:36;97838.69;;;15.99;72.34
80542;BME280;69870;51.460;8.842;2023-05-10T07:03:05;97838.81;;;15.78;72.56
80542;BME280;69870;51.460;8.842;2023-05-10T07:05:32;97844.38;;;15.60;73.33
80542;BME280;69870;51.460;8.842;2023-05-10T07:07:58;97841.69;;;15.50;73.38
80542;BME280;69870;51.460;8.842;2023-05-10T07:10:25;97855.41;;;15.39;73.54
80542;BME280;69870;51.460;8.842;2023-05-10T07:12:53;97844.88;;;15.30;73.71
80542;BME280;69870;51.460;8.842;2023-05-10T07:15:20;97851.91;;;15.24;74.15
80542;BME280;69870;51.460;8.842;2023-05-10T07:17:46;97846.84;;;15.23;74.85
80542;BME280;69870;51.460;8.842;2023-05-10T07:20:13;97848.00;;;15.25;75.02
80542;BME280;69870;51.460;8.842;2023-05-10T07:22:39;97859.72;;;15.36;73.94
80542;BME280;69870;51.460;8.842;2023-05-10T07:25:07;97849.13;;;15.53;74.11
80542;BME280;69870;51.460;8.842;2023-05-10T07:27:33;97848.25;;;15.70;73.47
80542;BME280;69870;51.460;8.842;2023-05-10T07:30:01;97849.00;;;15.77;73.06
80542;BME280;69870;51.460;8.842;2023-05-10T07:32:28;97849.38;;;15.79;72.53
80542;BME280;69870;51.460;8.842;2023-05-10T07:34:55;97852.91;;;15.80;73.01
80542;BME280;69870;51.460;8.842;2023-05-10T07:37:21;97856.81;;;15.86;72.73
80542;BME280;69870;51.460;8.842;2023-05-10T07:39:48;97853.31;;;15.75;72.77
80542;BME280;69870;51.460;8.842;2023-05-10T07:42:14;97855.69;;;15.73;73.20
80542;BME280;69870;51.460;8.842;2023-05-10T07:44:41;97855.22;;;15.88;72.57
80542;BME280;69870;51.460;8.842;2023-05-10T07:47:09;97856.53;;;16.28;71.87
80542;BME280;69870;51.460;8.842;2023-05-10T07:49:36;97861.13;;;16.45;71.48
80542;BME280;69870;51.460;8.842;2023-05-10T07:52:03;97858.00;;;16.43;71.32
80542;BME280;69870;51.460;8.842;2023-05-10T07:54:30;97861.63;;;16.33;71.45
80542;BME280;69870;51.460;8.842;2023-05-10T07:56:56;97867.53;;;16.25;71.71
80542;BME280;69870;51.460;8.842;2023-05-10T07:59:23;97866.06;;;16.13;71.88
80542;BME280;69870;51.460;8.842;2023-05-10T08:01:50;97873.97;;;15.93;72.65
80542;BME280;69870;51.460;8.842;2023-05-10T08:04:17;97880.34;;;15.80;72.71
80542;BME280;69870;51.460;8.842;2023-05-10T08:06:44;97877.25;;;15.71;72.96
80542;BME280;69870;51.460;8.842;2023-05-10T08:09:10;97890.59;;;15.62;73.17
80542;BME280;69870;51.460;8.842;2023-05-10T08:11:37;97891.41;;;15.55;73.95
80542;BME280;69870;51.460;8.842;2023-05-10T08:14:04;97891.81;;;15.36;73.75
80542;BME280;69870;51.460;8.842;2023-05-10T08:16:30;97896.97;;;15.20;73.77
80542;BME280;69870;51.460;8.842;2023-05-10T08:18:57;97892.66;;;15.12;74.35
80542;BME280;69870;51.460;8.842;2023-05-10T08:21:25;97899.31;;;15.11;74.01
80542;BME280;69870;51.460;8.842;2023-05-10T08:23:52;97902.41;;;15.23;74.31
80542;BME280;69870;51.460;8.842;2023-05-10T08:26:18;97906.31;;;15.36;73.94
80542;BME280;69870;51.460;8.842;2023-05-10T08:28:46;97898.44;;;15.56;73.40
80542;BME280;69870;51.460;8.842;2023-05-10T08:31:12;97910.53;;;15.69;73.30
80542;BME280;69870;51.460;8.842;2023-05-10T08:33:39;97914.41;;;15.86;73.10
80542;BME280;69870;51.460;8.842;2023-05-10T08:36:06;97907.66;;;16.01;73.22
80542;BME280;69870;51.460;8.842;2023-05-10T08:38:34;97906.84;;;16.07;73.20
80542;BME280;69870;51.460;8.842;2023-05-10T08:41:01;97902.91;;;16.12;72.63
80542;BME280;69870;51.460;8.842;2023-05-10T08:43:29;97900.53;;;16.18;72.55
80542;BME280;69870;51.460;8.842;2023-05-10T08:46:00;97907.72;;;16.59;71.58
80542;BME280;69870;51.460;8.842;2023-05-10T08:48:28;97906.31;;;16.89;70.54
80542;BME280;69870;51.460;8.842;2023-05-10T08:50:58;97908.25;;;16.92;70.63
80542;BME280;69870;51.460;8.842;2023-05-10T08:53:26;97906.00;;;16.76;71.06
80542;BME280;69870;51.460;8.842;2023-05-10T08:55:55;97911.25;;;16.60;71.56
80542;BME280;69870;51.460;8.842;2023-05-10T08:58:22;97917.97;;;16.52;71.64
80542;BME280;69870;51.460;8.842;2023-05-10T09:00:49;97912.13;;;16.43;71.81
80542;BME280;69870;51.460;8.842;2023-05-10T09:03:16;97920.75;;;16.41;71.44
80542;BME280;69870;51.460;8.842;2023-05-10T09:05:43;97919.97;;;16.41;71.63
80542;BME280;69870;51.460;8.842;2023-05-10T09:08:10;97926.19;;;16.52;71.77
80542;BME280;69870;51.460;8.842;2023-05-10T09:10:38;97929.97;;;16.72;70.87
80542;BME280;69870;51.460;8.842;2023-05-10T09:13:09;97923.03;;;17.05;70.56
80542;BME280;69870;51.460;8.842;2023-05-10T09:15:36;97920.41;;;18.06;67.78
80542;BME280;69870;51.460;8.842;2023-05-10T09:18:03;97919.09;;;19.44;64.50
80542;BME280;69870;51.460;8.842;2023-05-10T09:20:30;97911.56;;;20.59;61.63
80542;BME280;69870;51.460;8.842;2023-05-10T09:22:57;97910.28;;;21.44;59.37
80542;BME280;69870;51.460;8.842;2023-05-10T09:25:23;97907.47;;;21.60;59.29
80542;BME280;69870;51.460;8.842;2023-05-10T09:27:50;97907.38;;;21.63;59.16
80542;BME280;69870;51.460;8.842;2023-05-10T09:30:25;97900.97;;;21.66;58.56
80542;BME280;69870;51.460;8.842;2023-05-10T09:32:53;97909.19;;;21.54;58.40
80542;BME280;69870;51.460;8.842;2023-05-10T09:35:22;97903.47;;;21.32;58.84
80542;BME280;69870;51.460;8.842;2023-05-10T09:37:50;97905.22;;;21.55;58.16
80542;BME280;69870;51.460;8.842;2023-05-10T09:40:20;97906.53;;;22.08;56.58
80542;BME280;69870;51.460;8.842;2023-05-10T09:42:57;97906.16;;;21.93;56.24
80542;BME280;69870;51.460;8.842;2023-05-10T09:45:26;97911.25;;;21.95;56.95
80542;BME280;69870;51.460;8.842;2023-05-10T09:47:53;97924.13;;;22.68;55.61
80542;BME280;69870;51.460;8.842;2023-05-10T09:50:20;97914.47;;;22.97;55.01
80542;BME280;69870;51.460;8.842;2023-05-10T09:52:49;97913.91;;;22.90;54.35
80542;BME280;69870;51.460;8.842;2023-05-10T09:55:17;97910.94;;;23.31;53.43
80542;BME280;69870;51.460;8.842;2023-05-10T09:57:45;97911.06;;;23.27;52.94
80542;BME280;69870;51.460;8.842;2023-05-10T10:00:17;97910.81;;;22.75;53.56
80542;BME280;69870;51.460;8.842;2023-05-10T10:02:47;97912.66;;;22.28;54.24
80542;BME280;69870;51.460;8.842;2023-05-10T10:05:14;97910.94;;;21.76;55.02
80542;BME280;69870;51.460;8.842;2023-05-10T10:07:41;97914.69;;;21.41;55.76
80542;BME280;69870;51.460;8.842;2023-05-10T10:10:08;97917.47;;;21.09;56.79
80542;BME280;69870;51.460;8.842;2023-05-10T10:12:39;97919.97;;;20.87;57.08
80542;BME280;69870;51.460;8.842;2023-05-10T10:15:07;97924.75;;;20.51;57.26
80542;BME280;69870;51.460;8.842;2023-05-10T10:17:36;97929.56;;;20.11;58.18
80542;BME280;69870;51.460;8.842;2023-05-10T10:20:06;97932.81;;;19.87;58.75
80542;BME280;69870;51.460;8.842;2023-05-10T10:22:34;97935.41;;;19.78;59.42
80542;BME280;69870;51.460;8.842;2023-05-10T10:25:00;97936.50;;;19.80;59.47
80542;BME280;69870;51.460;8.842;2023-05-10T10:27:36;97935.19;;;19.88;59.71
80542;BME280;69870;51.460;8.842;2023-05-10T10:30:16;97928.94;;;20.23;58.73
80542;BME280;69870;51.460;8.842;2023-05-10T10:33:01;97924.84;;;21.89;55.21
80542;BME280;69870;51.460;8.842;2023-05-10T10:35:34;97921.34;;;23.52;51.87
80542;BME280;69870;51.460;8.842;2023-05-10T10:38:01;97908.78;;;24.87;49.04
80542;BME280;69870;51.460;8.842;2023-05-10T10:40:29;97890.59;;;26.03;46.65
80542;BME280;69870;51.460;8.842;2023-05-10T10:42:57;97898.03;;;26.99;45.12
80542;BME280;69870;51.460;8.842;2023-05-10T10:45:24;97897.78;;;26.88;44.84
80542;BME280;69870;51.460;8.842;2023-05-10T10:48:21;97890.53;;;26.40;45.69
80542;BME280;69870;51.460;8.842;2023-05-10T10:50:57;97894.22;;;27.44;43.68
80542;BME280;69870;51.460;8.842;2023-05-10T10:53:26;97882.66;;;28.18;41.68
80542;BME280;69870;51.460;8.842;2023-05-10T10:56:05;97880.75;;;28.39;41.48
80542;BME280;69870;51.460;8.842;2023-05-10T10:58:33;97888.78;;;28.95;40.37
80542;BME280;69870;51.460;8.842;2023-05-10T11:01:12;97885.38;;;28.91;40.56
80542;BME280;69870;51.460;8.842;2023-05-10T11:03:40;97876.97;;;28.91;40.12
80542;BME280;69870;51.460;8.842;2023-05-10T11:06:08;97886.72;;;28.47;41.16
80542;BME280;69870;51.460;8.842;2023-05-10T11:08:41;97881.72;;;28.21;40.61
80542;BME280;69870;51.460;8.842;2023-05-10T11:11:09;97884.97;;;28.49;39.99
80542;BME280;69870;51.460;8.842;2023-05-10T11:13:40;97877.47;;;28.90;39.42
80542;BME280;69870;51.460;8.842;2023-05-10T11:16:13;97874.25;;;28.48;38.46
80542;BME280;69870;51.460;8.842;2023-05-10T11:18:40;97881.28;;;27.23;41.31
80542;BME280;69870;51.460;8.842;2023-05-10T11:21:09;97884.38;;;27.01;41.24
80542;BME280;69870;51.460;8.842;2023-05-10T11:23:50;97890.06;;;26.83;41.44
80542;BME280;69870;51.460;8.842;2023-05-10T11:26:18;97879.72;;;26.24;42.75
80542;BME280;69870;51.460;8.842;2023-05-10T11:28:48;97879.16;;;25.74;43.51
80542;BME280;69870;51.460;8.842;2023-05-10T11:31:16;97894.66;;;25.66;43.47
80542;BME280;69870;51.460;8.842;2023-05-10T11:33:43;97891.19;;;26.07;42.33
80542;BME280;69870;51.460;8.842;2023-05-10T11:36:13;97895.59;;;25.45;43.02
80542;BME280;69870;51.460;8.842;2023-05-10T11:38:40;97892.13;;;25.32;43.69
80542;BME280;69870;51.460;8.842;2023-05-10T11:41:08;97897.50;;;24.99;44.61
80542;BME280;69870;51.460;8.842;2023-05-10T11:43:36;97902.44;;;24.55;45.23
80542;BME280;69870;51.460;8.842;2023-05-10T11:46:04;97912.97;;;23.86;46.37
80542;BME280;69870;51.460;8.842;2023-05-10T11:48:31;97918.28;;;23.38;47.03
80542;BME280;69870;51.460;8.842;2023-05-10T11:50:57;97920.00;;;22.85;47.82
80542;BME280;69870;51.460;8.842;2023-05-10T11:53:27;97926.50;;;22.28;49.68
80542;BME280;69870;51.460;8.842;2023-05-10T11:55:53;97930.75;;;21.91;50.39
80542;BME280;69870;51.460;8.842;2023-05-10T11:58:20;97929.47;;;21.79;50.47
80542;BME280;69870;51.460;8.842;2023-05-10T12:00:48;97945.03;;;21.73;50.64
80542;BME280;69870;51.460;8.842;2023-05-10T12:03:16;97945.81;;;21.74;49.61
80542;BME280;69870;51.460;8.842;2023-05-10T12:05:43;97941.53;;;21.73;49.30
80542;BME280;69870;51.460;8.842;2023-05-10T12:08:14;97947.53;;;21.55;49.89
80542;BME280;69870;51.460;8.842;2023-05-10T12:10:42;97960.00;;;21.47;49.39
80542;BME280;69870;51.460;8.842;2023-05-10T12:13:12;97958.28;;;21.21;48.90
80542;BME280;69870;51.460;8.842;2023-05-10T12:15:40;97965.53;;;20.99;49.86
80542;BME280;69870;51.460;8.842;2023-05-10T12:18:08;97955.31;;;20.80;50.09
80542;BME280;69870;51.460;8.842;2023-05-10T12:20:35;97966.84;;;20.59;51.03
80542;BME280;69870;51.460;8.842;2023-05-10T12:23:02;97975.19;;;20.39;51.03
80542;BME280;69870;51.460;8.842;2023-05-10T12:25:31;97972.78;;;20.02;52.55
80542;BME280;69870;51.460;8.842;2023-05-10T12:28:03;97974.53;;;19.72;53.30
80542;BME280;69870;51.460;8.842;2023-05-10T12:30:31;97982.34;;;19.54;55.02
80542;BME280;69870;51.460;8.842;2023-05-10T12:33:00;97969.22;;;19.39;54.59
80542;BME280;69870;51.460;8.842;2023-05-10T12:35:30;97977.28;;;19.26;55.47
80542;BME280;69870;51.460;8.842;2023-05-10T12:37:57;97976.63;;;19.19;56.12
80542;BME280;69870;51.460;8.842;2023-05-10T12:40:24;97968.59;;;19.28;56.47
80542;BME280;69870;51.460;8.842;2023-05-10T12:42:51;97965.63;;;19.42;55.62
80542;BME280;69870;51.460;8.842;2023-05-10T12:45:19;97965.91;;;19.47;56.46
80542;BME280;69870;51.460;8.842;2023-05-10T12:47:45;97967.13;;;19.46;56.34
80542;BME280;69870;51.460;8.842;2023-05-10T12:50:12;97965.91;;;19.24;56.48
80542;BME280;69870;51.460;8.842;2023-05-10T12:52:39;97977.94;;;19.34;56.87
80542;BME280;69870;51.460;8.842;2023-05-10T12:55:05;97967.59;;;19.41;56.70
80542;BME280;69870;51.460;8.842;2023-05-10T12:57:32;97971.19;;;19.38;56.85
80542;BME280;69870;51.460;8.842;2023-05-10T12:59:59;97977.91;;;19.37;56.99
80542;BME280;69870;51.460;8.842;2023-05-10T13:02:27;97981.91;;;19.33;56.77
80542;BME280;69870;51.460;8.842;2023-05-10T13:04:55;97984.22;;;19.34;57.42
80542;BME280;69870;51.460;8.842;2023-05-10T13:07:22;97985.53;;;19.53;57.32
80542;BME280;69870;51.460;8.842;2023-05-10T13:09:48;97986.25;;;19.57;57.61
80542;BME280;69870;51.460;8.842;2023-05-10T13:12:15;97990.06;;;19.63;58.15
80542;BME280;69870;51.460;8.842;2023-05-10T13:14:41;97988.13;;;19.60;58.53